Terminal Aerodrome Forecast
Issued by NWS Green Bay, WI

Home | Current Version | Previous Version | Text Only | Print | Product List | Glossary Off
Versions: 1 2 3 4 5 6 7 8 9 10 11 12 13 14 15 16 17 18 19 20 21 22 23 24 25 26 27 28 29 30 31 32 33 34 35 36 37 38 39 40 41 42

276
FTUS43 KGRB 210613 AAA
TAFGRB
TAF AMD
KGRB 210613Z 2106/2206 30012KT P6SM OVC018
     FM210800 29007KT P6SM BKN250
     FM220300 31003KT P6SM SCT250=

USA.gov is the U.S. government's official web portal to all federal, state and local government web resources and services.